sensor_id;sensor_type;location;lat;lon;timestamp;P1;durP1;ratioP1;P2;durP2;ratioP2
15142;SDS011;7672;50.834;6.286;2024-03-08T00:00:39;17.10;;;13.73;;
15142;SDS011;7672;50.834;6.286;2024-03-08T00:03:12;20.37;;;14.23;;
15142;SDS011;7672;50.834;6.286;2024-03-08T00:05:40;19.37;;;13.63;;
15142;SDS011;7672;50.834;6.286;2024-03-08T00:08:08;21.30;;;14.07;;
15142;SDS011;7672;50.834;6.286;2024-03-08T00:10:37;21.70;;;14.00;;
15142;SDS011;7672;50.834;6.286;2024-03-08T00:13:05;17.97;;;13.37;;
15142;SDS011;7672;50.834;6.286;2024-03-08T00:15:33;20.17;;;14.13;;
15142;SDS011;7672;50.834;6.286;2024-03-08T00:18:01;19.33;;;14.17;;
15142;SDS011;7672;50.834;6.286;2024-03-08T00:20:28;17.90;;;13.27;;
15142;SDS011;7672;50.834;6.286;2024-03-08T00:22:56;17.07;;;13.83;;
15142;SDS011;7672;50.834;6.286;2024-03-08T00:25:24;22.37;;;14.47;;
15142;SDS011;7672;50.834;6.286;2024-03-08T00:27:51;20.70;;;14.30;;
15142;SDS011;7672;50.834;6.286;2024-03-08T00:30:22;19.10;;;14.57;;
15142;SDS011;7672;50.834;6.286;2024-03-08T00:32:51;19.03;;;14.00;;
15142;SDS011;7672;50.834;6.286;2024-03-08T00:35:19;22.10;;;13.43;;
15142;SDS011;7672;50.834;6.286;2024-03-08T00:37:46;18.33;;;14.37;;
15142;SDS011;7672;50.834;6.286;2024-03-08T00:40:13;20.53;;;14.37;;
15142;SDS011;7672;50.834;6.286;2024-03-08T00:42:41;20.90;;;15.03;;
15142;SDS011;7672;50.834;6.286;2024-03-08T00:45:10;21.07;;;14.00;;
15142;SDS011;7672;50.834;6.286;2024-03-08T00:47:37;22.30;;;14.57;;
15142;SDS011;7672;50.834;6.286;2024-03-08T00:50:05;23.03;;;15.10;;
15142;SDS011;7672;50.834;6.286;2024-03-08T00:52:35;17.40;;;13.60;;
15142;SDS011;7672;50.834;6.286;2024-03-08T00:55:03;23.87;;;14.07;;
15142;SDS011;7672;50.834;6.286;2024-03-08T00:57:30;21.47;;;13.67;;
15142;SDS011;7672;50.834;6.286;2024-03-08T00:59:58;19.67;;;14.80;;
15142;SDS011;7672;50.834;6.286;2024-03-08T01:02:25;20.07;;;13.93;;
15142;SDS011;7672;50.834;6.286;2024-03-08T01:04:52;15.83;;;12.73;;
15142;SDS011;7672;50.834;6.286;2024-03-08T01:07:19;18.77;;;13.87;;
15142;SDS011;7672;50.834;6.286;2024-03-08T01:09:46;21.13;;;14.60;;
15142;SDS011;7672;50.834;6.286;2024-03-08T01:12:13;20.93;;;13.70;;
15142;SDS011;7672;50.834;6.286;2024-03-08T01:14:41;20.00;;;14.37;;
15142;SDS011;7672;50.834;6.286;2024-03-08T01:17:08;22.00;;;14.30;;
15142;SDS011;7672;50.834;6.286;2024-03-08T01:19:36;21.83;;;13.47;;
15142;SDS011;7672;50.834;6.286;2024-03-08T01:22:03;18.57;;;13.53;;
15142;SDS011;7672;50.834;6.286;2024-03-08T01:24:30;21.93;;;15.13;;
15142;SDS011;7672;50.834;6.286;2024-03-08T01:26:57;20.00;;;14.70;;
15142;SDS011;7672;50.834;6.286;2024-03-08T01:29:25;21.33;;;14.07;;
15142;SDS011;7672;50.834;6.286;2024-03-08T01:31:52;21.57;;;14.57;;
15142;SDS011;7672;50.834;6.286;2024-03-08T01:34:19;17.03;;;13.53;;
15142;SDS011;7672;50.834;6.286;2024-03-08T01:36:46;20.43;;;13.20;;
15142;SDS011;7672;50.834;6.286;2024-03-08T01:39:13;24.47;;;14.93;;
15142;SDS011;7672;50.834;6.286;2024-03-08T01:41:41;19.20;;;13.93;;
15142;SDS011;7672;50.834;6.286;2024-03-08T01:44:08;21.90;;;14.90;;
15142;SDS011;7672;50.834;6.286;2024-03-08T01:46:35;22.27;;;13.93;;
15142;SDS011;7672;50.834;6.286;2024-03-08T01:49:02;19.03;;;13.03;;
15142;SDS011;7672;50.834;6.286;2024-03-08T01:51:30;19.67;;;12.60;;
15142;SDS011;7672;50.834;6.286;2024-03-08T01:53:58;22.10;;;14.37;;
15142;SDS011;7672;50.834;6.286;2024-03-08T01:56:29;19.07;;;13.93;;
15142;SDS011;7672;50.834;6.286;2024-03-08T01:58:58;19.80;;;14.03;;
15142;SDS011;7672;50.834;6.286;2024-03-08T02:01:27;21.77;;;14.60;;
15142;SDS011;7672;50.834;6.286;2024-03-08T02:03:55;21.17;;;14.50;;
15142;SDS011;7672;50.834;6.286;2024-03-08T02:06:22;16.83;;;12.90;;
15142;SDS011;7672;50.834;6.286;2024-03-08T02:08:49;15.97;;;12.50;;
15142;SDS011;7672;50.834;6.286;2024-03-08T02:11:16;21.07;;;13.23;;
15142;SDS011;7672;50.834;6.286;2024-03-08T02:13:45;18.07;;;13.63;;
15142;SDS011;7672;50.834;6.286;2024-03-08T02:16:12;21.03;;;14.90;;
15142;SDS011;7672;50.834;6.286;2024-03-08T02:18:39;21.03;;;13.87;;
15142;SDS011;7672;50.834;6.286;2024-03-08T02:21:06;20.30;;;14.43;;
15142;SDS011;7672;50.834;6.286;2024-03-08T02:23:35;20.07;;;13.70;;
15142;SDS011;7672;50.834;6.286;2024-03-08T02:26:03;18.17;;;13.10;;
15142;SDS011;7672;50.834;6.286;2024-03-08T02:28:31;20.37;;;13.57;;
15142;SDS011;7672;50.834;6.286;2024-03-08T02:30:59;19.30;;;14.27;;
15142;SDS011;7672;50.834;6.286;2024-03-08T02:33:27;23.03;;;14.10;;
15142;SDS011;7672;50.834;6.286;2024-03-08T02:35:59;20.27;;;13.93;;
15142;SDS011;7672;50.834;6.286;2024-03-08T02:38:26;19.93;;;13.33;;
15142;SDS011;7672;50.834;6.286;2024-03-08T02:40:54;19.03;;;13.33;;
15142;SDS011;7672;50.834;6.286;2024-03-08T02:43:21;19.77;;;13.87;;
15142;SDS011;7672;50.834;6.286;2024-03-08T02:45:51;20.50;;;13.63;;
15142;SDS011;7672;50.834;6.286;2024-03-08T02:48:21;20.63;;;13.70;;
15142;SDS011;7672;50.834;6.286;2024-03-08T02:50:49;26.73;;;14.63;;
15142;SDS011;7672;50.834;6.286;2024-03-08T02:53:18;20.47;;;13.23;;
15142;SDS011;7672;50.834;6.286;2024-03-08T02:55:45;20.63;;;14.90;;
15142;SDS011;7672;50.834;6.286;2024-03-08T02:58:13;19.57;;;13.80;;
15142;SDS011;7672;50.834;6.286;2024-03-08T03:00:41;23.07;;;14.70;;
15142;SDS011;7672;50.834;6.286;2024-03-08T03:03:10;22.67;;;14.93;;
15142;SDS011;7672;50.834;6.286;2024-03-08T03:05:37;20.97;;;12.87;;
15142;SDS011;7672;50.834;6.286;2024-03-08T03:08:11;21.93;;;14.33;;
15142;SDS011;7672;50.834;6.286;2024-03-08T03:10:39;24.73;;;14.43;;
15142;SDS011;7672;50.834;6.286;2024-03-08T03:13:06;22.53;;;14.80;;
15142;SDS011;7672;50.834;6.286;2024-03-08T03:15:35;21.53;;;14.27;;
15142;SDS011;7672;50.834;6.286;2024-03-08T03:18:03;21.80;;;14.13;;
15142;SDS011;7672;50.834;6.286;2024-03-08T03:20:30;19.40;;;14.13;;
15142;SDS011;7672;50.834;6.286;2024-03-08T03:23:03;21.63;;;14.10;;
15142;SDS011;7672;50.834;6.286;2024-03-08T03:25:30;22.33;;;14.17;;
15142;SDS011;7672;50.834;6.286;2024-03-08T03:28:02;20.83;;;13.90;;
15142;SDS011;7672;50.834;6.286;2024-03-08T03:30:31;21.50;;;14.10;;
15142;SDS011;7672;50.834;6.286;2024-03-08T03:33:00;21.10;;;13.47;;
15142;SDS011;7672;50.834;6.286;2024-03-08T03:35:33;19.73;;;13.83;;
15142;SDS011;7672;50.834;6.286;2024-03-08T03:38:07;20.33;;;14.10;;
15142;SDS011;7672;50.834;6.286;2024-03-08T03:40:38;19.63;;;13.47;;
15142;SDS011;7672;50.834;6.286;2024-03-08T03:43:09;20.43;;;13.23;;
15142;SDS011;7672;50.834;6.286;2024-03-08T03:45:39;20.57;;;13.57;;
15142;SDS011;7672;50.834;6.286;2024-03-08T03:48:08;23.53;;;13.53;;
15142;SDS011;7672;50.834;6.286;2024-03-08T03:50:37;21.30;;;14.70;;
15142;SDS011;7672;50.834;6.286;2024-03-08T03:53:08;22.03;;;15.23;;
15142;SDS011;7672;50.834;6.286;2024-03-08T03:55:39;21.00;;;14.17;;
15142;SDS011;7672;50.834;6.286;2024-03-08T03:58:08;23.33;;;15.33;;
15142;SDS011;7672;50.834;6.286;2024-03-08T04:00:38;19.10;;;13.03;;
15142;SDS011;7672;50.834;6.286;2024-03-08T04:03:06;23.13;;;15.37;;
15142;SDS011;7672;50.834;6.286;2024-03-08T04:05:34;20.50;;;14.13;;
15142;SDS011;7672;50.834;6.286;2024-03-08T04:08:01;19.03;;;13.63;;
15142;SDS011;7672;50.834;6.286;2024-03-08T04:10:30;19.47;;;13.40;;
15142;SDS011;7672;50.834;6.286;2024-03-08T04:13:01;22.90;;;15.80;;
15142;SDS011;7672;50.834;6.286;2024-03-08T04:15:29;21.17;;;14.87;;
15142;SDS011;7672;50.834;6.286;2024-03-08T04:17:57;24.30;;;15.27;;
15142;SDS011;7672;50.834;6.286;2024-03-08T04:20:27;23.43;;;14.70;;
15142;SDS011;7672;50.834;6.286;2024-03-08T04:22:54;21.27;;;14.47;;
15142;SDS011;7672;50.834;6.286;2024-03-08T04:25:21;19.63;;;14.10;;
15142;SDS011;7672;50.834;6.286;2024-03-08T04:27:48;21.83;;;13.83;;
15142;SDS011;7672;50.834;6.286;2024-03-08T04:30:15;20.80;;;14.33;;
15142;SDS011;7672;50.834;6.286;2024-03-08T04:32:43;18.90;;;13.77;;
15142;SDS011;7672;50.834;6.286;2024-03-08T04:35:11;19.67;;;14.03;;
15142;SDS011;7672;50.834;6.286;2024-03-08T04:37:39;20.83;;;13.93;;
15142;SDS011;7672;50.834;6.286;2024-03-08T04:40:06;21.77;;;14.70;;
15142;SDS011;7672;50.834;6.286;2024-03-08T04:42:34;20.47;;;14.50;;
15142;SDS011;7672;50.834;6.286;2024-03-08T04:45:06;19.00;;;13.10;;
15142;SDS011;7672;50.834;6.286;2024-03-08T04:47:38;22.13;;;13.50;;
15142;SDS011;7672;50.834;6.286;2024-03-08T04:50:06;21.27;;;14.77;;
15142;SDS011;7672;50.834;6.286;2024-03-08T04:52:35;21.20;;;14.77;;
15142;SDS011;7672;50.834;6.286;2024-03-08T04:55:26;23.90;;;14.67;;
15142;SDS011;7672;50.834;6.286;2024-03-08T04:57:53;23.43;;;14.97;;
15142;SDS011;7672;50.834;6.286;2024-03-08T05:00:20;26.03;;;14.67;;
15142;SDS011;7672;50.834;6.286;2024-03-08T05:02:48;24.97;;;13.77;;
15142;SDS011;7672;50.834;6.286;2024-03-08T05:06:05;19.43;;;14.50;;
15142;SDS011;7672;50.834;6.286;2024-03-08T05:08:33;21.00;;;13.47;;
15142;SDS011;7672;50.834;6.286;2024-03-08T05:11:01;21.23;;;15.23;;
15142;SDS011;7672;50.834;6.286;2024-03-08T05:13:30;24.20;;;14.43;;
15142;SDS011;7672;50.834;6.286;2024-03-08T05:15:58;20.27;;;14.67;;
15142;SDS011;7672;50.834;6.286;2024-03-08T05:18:25;26.23;;;14.47;;
15142;SDS011;7672;50.834;6.286;2024-03-08T05:20:55;25.40;;;15.40;;
15142;SDS011;7672;50.834;6.286;2024-03-08T05:23:22;23.10;;;15.03;;
15142;SDS011;7672;50.834;6.286;2024-03-08T05:25:49;22.90;;;14.63;;
15142;SDS011;7672;50.834;6.286;2024-03-08T05:28:16;22.63;;;14.47;;
15142;SDS011;7672;50.834;6.286;2024-03-08T05:30:44;20.67;;;13.63;;
15142;SDS011;7672;50.834;6.286;2024-03-08T05:33:11;27.80;;;15.33;;
15142;SDS011;7672;50.834;6.286;2024-03-08T05:35:41;23.63;;;14.20;;
15142;SDS011;7672;50.834;6.286;2024-03-08T05:38:08;21.53;;;13.20;;
15142;SDS011;7672;50.834;6.286;2024-03-08T05:40:37;27.30;;;15.80;;
15142;SDS011;7672;50.834;6.286;2024-03-08T05:43:07;21.50;;;13.27;;
15142;SDS011;7672;50.834;6.286;2024-03-08T05:45:36;18.97;;;13.27;;
15142;SDS011;7672;50.834;6.286;2024-03-08T05:48:07;20.00;;;13.80;;
15142;SDS011;7672;50.834;6.286;2024-03-08T05:50:35;22.10;;;14.47;;
15142;SDS011;7672;50.834;6.286;2024-03-08T05:53:02;23.20;;;14.27;;
15142;SDS011;7672;50.834;6.286;2024-03-08T05:55:30;22.27;;;14.57;;
15142;SDS011;7672;50.834;6.286;2024-03-08T05:57:58;20.80;;;14.03;;
15142;SDS011;7672;50.834;6.286;2024-03-08T06:00:27;24.20;;;14.53;;
15142;SDS011;7672;50.834;6.286;2024-03-08T06:02:54;23.53;;;15.30;;
15142;SDS011;7672;50.834;6.286;2024-03-08T06:05:22;20.10;;;14.10;;
15142;SDS011;7672;50.834;6.286;2024-03-08T06:07:51;23.57;;;15.43;;
15142;SDS011;7672;50.834;6.286;2024-03-08T06:10:19;23.60;;;14.17;;
15142;SDS011;7672;50.834;6.286;2024-03-08T06:12:46;20.00;;;13.87;;
15142;SDS011;7672;50.834;6.286;2024-03-08T06:15:13;21.40;;;15.07;;
15142;SDS011;7672;50.834;6.286;2024-03-08T06:17:41;19.97;;;14.43;;
15142;SDS011;7672;50.834;6.286;2024-03-08T06:20:09;20.60;;;13.67;;
15142;SDS011;7672;50.834;6.286;2024-03-08T06:22:37;20.27;;;13.73;;
15142;SDS011;7672;50.834;6.286;2024-03-08T06:25:10;21.63;;;14.57;;
15142;SDS011;7672;50.834;6.286;2024-03-08T06:27:40;25.57;;;15.60;;
15142;SDS011;7672;50.834;6.286;2024-03-08T06:30:13;24.30;;;14.13;;
15142;SDS011;7672;50.834;6.286;2024-03-08T06:32:42;21.17;;;15.57;;
15142;SDS011;7672;50.834;6.286;2024-03-08T06:35:09;23.20;;;15.13;;
15142;SDS011;7672;50.834;6.286;2024-03-08T06:37:37;23.70;;;14.40;;
15142;SDS011;7672;50.834;6.286;2024-03-08T06:40:04;23.40;;;16.07;;
15142;SDS011;7672;50.834;6.286;2024-03-08T06:42:34;23.10;;;15.53;;
15142;SDS011;7672;50.834;6.286;2024-03-08T06:45:01;23.77;;;15.10;;
15142;SDS011;7672;50.834;6.286;2024-03-08T06:47:32;22.73;;;15.40;;
15142;SDS011;7672;50.834;6.286;2024-03-08T06:50:00;22.70;;;15.20;;
15142;SDS011;7672;50.834;6.286;2024-03-08T06:52:27;22.43;;;14.60;;
15142;SDS011;7672;50.834;6.286;2024-03-08T06:54:54;24.50;;;15.93;;
15142;SDS011;7672;50.834;6.286;2024-03-08T06:57:21;26.60;;;16.73;;
15142;SDS011;7672;50.834;6.286;2024-03-08T06:59:48;29.07;;;16.60;;
15142;SDS011;7672;50.834;6.286;2024-03-08T07:02:15;23.20;;;15.43;;
15142;SDS011;7672;50.834;6.286;2024-03-08T07:04:42;24.00;;;15.57;;
15142;SDS011;7672;50.834;6.286;2024-03-08T07:07:09;23.53;;;15.43;;
15142;SDS011;7672;50.834;6.286;2024-03-08T07:09:36;24.37;;;15.40;;
15142;SDS011;7672;50.834;6.286;2024-03-08T07:12:03;26.07;;;15.47;;
15142;SDS011;7672;50.834;6.286;2024-03-08T07:14:31;26.17;;;16.00;;
15142;SDS011;7672;50.834;6.286;2024-03-08T07:16:58;34.80;;;18.73;;
15142;SDS011;7672;50.834;6.286;2024-03-08T07:19:25;24.40;;;14.53;;
15142;SDS011;7672;50.834;6.286;2024-03-08T07:21:52;23.93;;;15.50;;
15142;SDS011;7672;50.834;6.286;2024-03-08T07:24:19;26.00;;;16.80;;
15142;SDS011;7672;50.834;6.286;2024-03-08T07:26:59;21.73;;;15.47;;
15142;SDS011;7672;50.834;6.286;2024-03-08T07:29:26;23.93;;;15.53;;
15142;SDS011;7672;50.834;6.286;2024-03-08T07:31:53;24.30;;;16.27;;
15142;SDS011;7672;50.834;6.286;2024-03-08T07:34:45;19.90;;;14.40;;
15142;SDS011;7672;50.834;6.286;2024-03-08T07:37:14;21.57;;;16.00;;
15142;SDS011;7672;50.834;6.286;2024-03-08T07:39:41;19.90;;;14.73;;
15142;SDS011;7672;50.834;6.286;2024-03-08T07:42:09;22.00;;;14.97;;
15142;SDS011;7672;50.834;6.286;2024-03-08T07:44:38;20.27;;;14.67;;
15142;SDS011;7672;50.834;6.286;2024-03-08T07:47:06;22.07;;;16.40;;
15142;SDS011;7672;50.834;6.286;2024-03-08T07:49:35;23.50;;;15.17;;
15142;SDS011;7672;50.834;6.286;2024-03-08T07:52:05;27.40;;;16.20;;
15142;SDS011;7672;50.834;6.286;2024-03-08T07:54:33;24.80;;;14.83;;
15142;SDS011;7672;50.834;6.286;2024-03-08T07:57:01;21.77;;;14.47;;
15142;SDS011;7672;50.834;6.286;2024-03-08T07:59:33;22.60;;;15.83;;
15142;SDS011;7672;50.834;6.286;2024-03-08T08:02:00;23.83;;;15.63;;
15142;SDS011;7672;50.834;6.286;2024-03-08T08:04:27;20.10;;;14.83;;
15142;SDS011;7672;50.834;6.286;2024-03-08T08:06:55;21.13;;;15.23;;
15142;SDS011;7672;50.834;6.286;2024-03-08T08:09:23;25.57;;;15.03;;
15142;SDS011;7672;50.834;6.286;2024-03-08T08:11:55;19.50;;;14.77;;
15142;SDS011;7672;50.834;6.286;2024-03-08T08:14:22;21.37;;;14.27;;
15142;SDS011;7672;50.834;6.286;2024-03-08T08:16:49;22.20;;;14.17;;
15142;SDS011;7672;50.834;6.286;2024-03-08T08:19:19;21.00;;;15.70;;
15142;SDS011;7672;50.834;6.286;2024-03-08T08:21:47;19.40;;;15.00;;
15142;SDS011;7672;50.834;6.286;2024-03-08T08:24:14;20.13;;;14.00;;
15142;SDS011;7672;50.834;6.286;2024-03-08T08:26:41;20.27;;;13.77;;
15142;SDS011;7672;50.834;6.286;2024-03-08T08:29:08;17.73;;;13.57;;
15142;SDS011;7672;50.834;6.286;2024-03-08T08:31:35;21.07;;;14.97;;
15142;SDS011;7672;50.834;6.286;2024-03-08T08:34:02;21.97;;;15.90;;
15142;SDS011;7672;50.834;6.286;2024-03-08T08:36:29;19.67;;;14.20;;
15142;SDS011;7672;50.834;6.286;2024-03-08T08:38:57;24.37;;;15.73;;
15142;SDS011;7672;50.834;6.286;2024-03-08T08:41:25;20.33;;;14.63;;
15142;SDS011;7672;50.834;6.286;2024-03-08T08:43:53;23.57;;;15.70;;
15142;SDS011;7672;50.834;6.286;2024-03-08T08:46:34;19.67;;;14.77;;
15142;SDS011;7672;50.834;6.286;2024-03-08T08:49:07;21.07;;;15.63;;
15142;SDS011;7672;50.834;6.286;2024-03-08T08:51:37;20.63;;;15.03;;
15142;SDS011;7672;50.834;6.286;2024-03-08T08:54:04;24.37;;;18.20;;
15142;SDS011;7672;50.834;6.286;2024-03-08T08:56:36;22.03;;;16.83;;
15142;SDS011;7672;50.834;6.286;2024-03-08T08:59:03;23.73;;;15.87;;
15142;SDS011;7672;50.834;6.286;2024-03-08T09:01:31;21.60;;;16.13;;
15142;SDS011;7672;50.834;6.286;2024-03-08T09:03:59;20.43;;;15.43;;
15142;SDS011;7672;50.834;6.286;2024-03-08T09:06:27;20.40;;;16.63;;
15142;SDS011;7672;50.834;6.286;2024-03-08T09:08:54;22.03;;;16.67;;
15142;SDS011;7672;50.834;6.286;2024-03-08T09:11:20;24.70;;;19.90;;
15142;SDS011;7672;50.834;6.286;2024-03-08T09:13:48;19.57;;;17.47;;
15142;SDS011;7672;50.834;6.286;2024-03-08T09:16:15;24.40;;;19.10;;
15142;SDS011;7672;50.834;6.286;2024-03-08T09:18:42;21.87;;;19.13;;
15142;SDS011;7672;50.834;6.286;2024-03-08T09:21:10;22.37;;;19.23;;
15142;SDS011;7672;50.834;6.286;2024-03-08T09:23:37;23.93;;;19.10;;
15142;SDS011;7672;50.834;6.286;2024-03-08T09:26:04;20.50;;;18.00;;
15142;SDS011;7672;50.834;6.286;2024-03-08T09:28:38;21.47;;;18.53;;
15142;SDS011;7672;50.834;6.286;2024-03-08T09:31:05;23.70;;;17.87;;
15142;SDS011;7672;50.834;6.286;2024-03-08T09:33:32;20.67;;;18.47;;
15142;SDS011;7672;50.834;6.286;2024-03-08T09:36:01;22.50;;;19.17;;
15142;SDS011;7672;50.834;6.286;2024-03-08T09:38:30;22.30;;;18.57;;
15142;SDS011;7672;50.834;6.286;2024-03-08T09:40:57;19.57;;;17.50;;
15142;SDS011;7672;50.834;6.286;2024-03-08T09:43:24;23.00;;;18.93;;
15142;SDS011;7672;50.834;6.286;2024-03-08T09:45:51;21.33;;;18.43;;
15142;SDS011;7672;50.834;6.286;2024-03-08T09:48:18;20.20;;;17.50;;
15142;SDS011;7672;50.834;6.286;2024-03-08T09:50:46;19.83;;;17.40;;
15142;SDS011;7672;50.834;6.286;2024-03-08T09:53:14;20.20;;;17.77;;
15142;SDS011;7672;50.834;6.286;2024-03-08T09:55:43;22.70;;;17.53;;
15142;SDS011;7672;50.834;6.286;2024-03-08T09:58:12;21.67;;;18.17;;
15142;SDS011;7672;50.834;6.286;2024-03-08T10:00:54;21.80;;;17.37;;
15142;SDS011;7672;50.834;6.286;2024-03-08T10:03:23;19.90;;;17.37;;
15142;SDS011;7672;50.834;6.286;2024-03-08T10:05:53;21.50;;;17.17;;
15142;SDS011;7672;50.834;6.286;2024-03-08T10:08:22;19.43;;;16.97;;
15142;SDS011;7672;50.834;6.286;2024-03-08T10:10:50;19.40;;;17.23;;
15142;SDS011;7672;50.834;6.286;2024-03-08T10:13:17;22.70;;;17.17;;
15142;SDS011;7672;50.834;6.286;2024-03-08T10:15:46;19.10;;;17.10;;
15142;SDS011;7672;50.834;6.286;2024-03-08T10:18:13;20.27;;;16.47;;
15142;SDS011;7672;50.834;6.286;2024-03-08T10:20:40;18.40;;;16.20;;
15142;SDS011;7672;50.834;6.286;2024-03-08T10:23:07;17.87;;;16.07;;
15142;SDS011;7672;50.834;6.286;2024-03-08T10:25:37;18.47;;;16.50;;
15142;SDS011;7672;50.834;6.286;2024-03-08T10:28:05;18.90;;;16.53;;
15142;SDS011;7672;50.834;6.286;2024-03-08T10:30:32;17.67;;;15.77;;
15142;SDS011;7672;50.834;6.286;2024-03-08T10:33:00;18.47;;;16.00;;
15142;SDS011;7672;50.834;6.286;2024-03-08T10:35:27;18.03;;;15.93;;
15142;SDS011;7672;50.834;6.286;2024-03-08T10:37:54;18.17;;;16.07;;
15142;SDS011;7672;50.834;6.286;2024-03-08T10:40:27;20.27;;;16.40;;
15142;SDS011;7672;50.834;6.286;2024-03-08T10:42:58;22.20;;;16.83;;
15142;SDS011;7672;50.834;6.286;2024-03-08T10:45:30;18.53;;;16.53;;
15142;SDS011;7672;50.834;6.286;2024-03-08T10:51:05;17.20;;;15.37;;
15142;SDS011;7672;50.834;6.286;2024-03-08T10:53:34;17.50;;;15.63;;
15142;SDS011;7672;50.834;6.286;2024-03-08T10:56:03;18.27;;;16.13;;
15142;SDS011;7672;50.834;6.286;2024-03-08T10:58:31;17.67;;;15.77;;
15142;SDS011;7672;50.834;6.286;2024-03-08T11:00:58;18.93;;;16.43;;
15142;SDS011;7672;50.834;6.286;2024-03-08T11:06:13;17.30;;;15.50;;
15142;SDS011;7672;50.834;6.286;2024-03-08T11:08:50;17.73;;;15.93;;
15142;SDS011;7672;50.834;6.286;2024-03-08T11:11:30;17.50;;;15.33;;
15142;SDS011;7672;50.834;6.286;2024-03-08T11:14:01;17.87;;;15.97;;
15142;SDS011;7672;50.834;6.286;2024-03-08T11:18:59;17.43;;;15.33;;
15142;SDS011;7672;50.834;6.286;2024-03-08T11:21:31;17.60;;;15.80;;
15142;SDS011;7672;50.834;6.286;2024-03-08T11:26:35;18.70;;;15.77;;
15142;SDS011;7672;50.834;6.286;2024-03-08T11:32:07;17.03;;;15.13;;
15142;SDS011;7672;50.834;6.286;2024-03-08T11:34:42;16.87;;;14.83;;
15142;SDS011;7672;50.834;6.286;2024-03-08T11:37:16;17.43;;;15.03;;
15142;SDS011;7672;50.834;6.286;2024-03-08T11:39:47;18.30;;;15.80;;
15142;SDS011;7672;50.834;6.286;2024-03-08T11:42:19;19.23;;;16.27;;
15142;SDS011;7672;50.834;6.286;2024-03-08T11:44:46;17.73;;;15.93;;
15142;SDS011;7672;50.834;6.286;2024-03-08T11:47:15;18.83;;;15.80;;
15142;SDS011;7672;50.834;6.286;2024-03-08T11:49:42;18.07;;;15.67;;
15142;SDS011;7672;50.834;6.286;2024-03-08T11:52:16;17.27;;;15.47;;
15142;SDS011;7672;50.834;6.286;2024-03-08T11:55:02;16.93;;;15.13;;
15142;SDS011;7672;50.834;6.286;2024-03-08T11:57:31;16.73;;;14.97;;
15142;SDS011;7672;50.834;6.286;2024-03-08T11:59:58;17.17;;;14.93;;
15142;SDS011;7672;50.834;6.286;2024-03-08T12:02:35;16.10;;;14.40;;
15142;SDS011;7672;50.834;6.286;2024-03-08T12:05:04;17.67;;;15.77;;
15142;SDS011;7672;50.834;6.286;2024-03-08T12:07:42;16.53;;;14.40;;
15142;SDS011;7672;50.834;6.286;2024-03-08T12:10:16;17.23;;;15.37;;
15142;SDS011;7672;50.834;6.286;2024-03-08T12:12:48;16.53;;;14.83;;
15142;SDS011;7672;50.834;6.286;2024-03-08T12:15:18;19.73;;;15.53;;
15142;SDS011;7672;50.834;6.286;2024-03-08T12:17:48;21.17;;;14.00;;
15142;SDS011;7672;50.834;6.286;2024-03-08T12:20:22;17.40;;;14.90;;
15142;SDS011;7672;50.834;6.286;2024-03-08T12:22:55;17.37;;;15.07;;
15142;SDS011;7672;50.834;6.286;2024-03-08T12:25:30;17.30;;;15.17;;
15142;SDS011;7672;50.834;6.286;2024-03-08T12:28:08;17.17;;;14.00;;
15142;SDS011;7672;50.834;6.286;2024-03-08T12:30:50;16.97;;;14.60;;
15142;SDS011;7672;50.834;6.286;2024-03-08T12:33:20;19.57;;;14.93;;
15142;SDS011;7672;50.834;6.286;2024-03-08T12:35:52;18.33;;;14.80;;
15142;SDS011;7672;50.834;6.286;2024-03-08T12:38:27;16.33;;;14.53;;
15142;SDS011;7672;50.834;6.286;2024-03-08T12:40:55;15.80;;;14.13;;
15142;SDS011;7672;50.834;6.286;2024-03-08T12:43:25;18.13;;;14.70;;
15142;SDS011;7672;50.834;6.286;2024-03-08T12:45:52;15.80;;;13.77;;
15142;SDS011;7672;50.834;6.286;2024-03-08T12:48:21;17.60;;;14.33;;
15142;SDS011;7672;50.834;6.286;2024-03-08T12:50:48;17.00;;;13.07;;
15142;SDS011;7672;50.834;6.286;2024-03-08T12:53:17;16.43;;;12.47;;
15142;SDS011;7672;50.834;6.286;2024-03-08T12:55:44;15.10;;;12.40;;
15142;SDS011;7672;50.834;6.286;2024-03-08T12:58:11;18.80;;;11.30;;
15142;SDS011;7672;50.834;6.286;2024-03-08T13:00:39;14.97;;;11.80;;
15142;SDS011;7672;50.834;6.286;2024-03-08T13:03:09;17.77;;;12.73;;
15142;SDS011;7672;50.834;6.286;2024-03-08T13:05:37;15.23;;;10.93;;
15142;SDS011;7672;50.834;6.286;2024-03-08T13:08:06;15.37;;;12.23;;
15142;SDS011;7672;50.834;6.286;2024-03-08T13:10:40;15.77;;;10.73;;
15142;SDS011;7672;50.834;6.286;2024-03-08T13:13:10;15.37;;;10.13;;
15142;SDS011;7672;50.834;6.286;2024-03-08T13:15:43;16.83;;;11.83;;
15142;SDS011;7672;50.834;6.286;2024-03-08T13:18:10;17.53;;;13.57;;
15142;SDS011;7672;50.834;6.286;2024-03-08T13:20:37;14.50;;;11.50;;
15142;SDS011;7672;50.834;6.286;2024-03-08T13:23:13;13.37;;;10.30;;
15142;SDS011;7672;50.834;6.286;2024-03-08T13:25:40;14.43;;;12.10;;
15142;SDS011;7672;50.834;6.286;2024-03-08T13:28:07;13.90;;;10.30;;
15142;SDS011;7672;50.834;6.286;2024-03-08T13:30:35;19.63;;;12.93;;
15142;SDS011;7672;50.834;6.286;2024-03-08T13:33:02;16.80;;;12.10;;
15142;SDS011;7672;50.834;6.286;2024-03-08T13:35:33;13.97;;;11.30;;
15142;SDS011;7672;50.834;6.286;2024-03-08T13:38:01;14.03;;;10.33;;
15142;SDS011;7672;50.834;6.286;2024-03-08T13:40:30;13.03;;;10.17;;
15142;SDS011;7672;50.834;6.286;2024-03-08T13:42:57;17.73;;;11.47;;
15142;SDS011;7672;50.834;6.286;2024-03-08T13:45:27;15.97;;;12.43;;
15142;SDS011;7672;50.834;6.286;2024-03-08T13:47:54;15.27;;;10.77;;
15142;SDS011;7672;50.834;6.286;2024-03-08T13:50:21;13.43;;;9.23;;
15142;SDS011;7672;50.834;6.286;2024-03-08T13:52:49;12.23;;;10.90;;
15142;SDS011;7672;50.834;6.286;2024-03-08T13:55:22;13.17;;;10.00;;
15142;SDS011;7672;50.834;6.286;2024-03-08T13:57:53;17.33;;;9.93;;
15142;SDS011;7672;50.834;6.286;2024-03-08T14:00:20;11.03;;;8.50;;
15142;SDS011;7672;50.834;6.286;2024-03-08T14:02:49;14.53;;;10.87;;
15142;SDS011;7672;50.834;6.286;2024-03-08T14:05:16;12.90;;;9.93;;
15142;SDS011;7672;50.834;6.286;2024-03-08T14:07:46;13.27;;;8.77;;
15142;SDS011;7672;50.834;6.286;2024-03-08T14:10:15;13.07;;;9.37;;
15142;SDS011;7672;50.834;6.286;2024-03-08T14:12:46;12.27;;;10.10;;
15142;SDS011;7672;50.834;6.286;2024-03-08T14:15:16;15.17;;;10.20;;
15142;SDS011;7672;50.834;6.286;2024-03-08T14:17:43;15.17;;;10.67;;
15142;SDS011;7672;50.834;6.286;2024-03-08T14:20:13;13.00;;;9.23;;
15142;SDS011;7672;50.834;6.286;2024-03-08T14:22:40;12.37;;;9.80;;
15142;SDS011;7672;50.834;6.286;2024-03-08T14:25:07;11.77;;;9.17;;
15142;SDS011;7672;50.834;6.286;2024-03-08T14:27:44;14.27;;;10.07;;
15142;SDS011;7672;50.834;6.286;2024-03-08T14:30:12;20.43;;;13.50;;
15142;SDS011;7672;50.834;6.286;2024-03-08T14:32:44;16.70;;;12.97;;
15142;SDS011;7672;50.834;6.286;2024-03-08T14:35:13;14.03;;;11.40;;
15142;SDS011;7672;50.834;6.286;2024-03-08T14:37:41;18.63;;;10.67;;
15142;SDS011;7672;50.834;6.286;2024-03-08T14:40:09;12.03;;;9.73;;
15142;SDS011;7672;50.834;6.286;2024-03-08T14:42:37;14.30;;;10.20;;
15142;SDS011;7672;50.834;6.286;2024-03-08T14:45:04;13.83;;;10.77;;
15142;SDS011;7672;50.834;6.286;2024-03-08T14:47:32;13.97;;;10.03;;
15142;SDS011;7672;50.834;6.286;2024-03-08T14:50:00;12.40;;;10.03;;
15142;SDS011;7672;50.834;6.286;2024-03-08T14:52:28;11.90;;;9.33;;
15142;SDS011;7672;50.834;6.286;2024-03-08T14:54:55;14.57;;;10.23;;
15142;SDS011;7672;50.834;6.286;2024-03-08T14:57:24;11.87;;;8.83;;
15142;SDS011;7672;50.834;6.286;2024-03-08T14:59:52;13.03;;;9.57;;